»·PEaware :: N505PA KPSP-KGCN

N505PA :: KPSP-KGCN

FLIGHT INFORMATION

Flight Status: Arrived
Operator: Privately registered:
United States
More flights under this callsign
Pilot: Joseph C. (259)
Aircraft: GATES LEARJET LEARJET 23
(LJ23)
More flights by this aircraft type
Origin: KPSP Palm Springs Intl
United States
Destination: KGCN Grand Canyon Natl Park
United States
More flights between these airports :: More routes between these airports
Route: +EED PGS
File this flight plan on PilotEdge
Remarks: / V /
Altitude:
(Current/Filed)
27,000ft
Speed:
(Current/Filed)
400kts
Departed: 02-Nov-11 11:24 AM
Arrived: 02-Nov-11 12:10 PM
Distance/Time
Traveled:
250nm/0:46
Distance/Time
To Go:
Arrived

Flight Plot

Page will automatically refresh every two minutes.


Map Options




Map Legend


Flown Route
Filed Route
Departure Airport
Arrival Airport
Navaid (VOR, NDB)
Fix

Horizontal Profiles

Position Reports

Time Latitude Longitude Heading Altitude Ground
Speed
02-Nov-11 11:01 33.826456 -116.510161 90 480ft 0kts
02-Nov-11 11:02 33.826456 -116.510161 90 480ft 0kts
02-Nov-11 11:03 33.826456 -116.510161 90 480ft 0kts
02-Nov-11 11:04 33.826456 -116.510161 90 480ft 0kts
02-Nov-11 11:05 33.826456 -116.510161 90 480ft 0kts
02-Nov-11 11:06 33.826456 -116.510161 90 480ft 0kts
02-Nov-11 11:07 33.826456 -116.510161 90 480ft 0kts
02-Nov-11 11:08 33.826456 -116.510161 90 480ft 0kts
02-Nov-11 11:09 33.826456 -116.510161 90 480ft 0kts
02-Nov-11 11:10 33.826456 -116.510161 90 480ft 0kts
02-Nov-11 11:11 33.826456 -116.510161 90 480ft 0kts
02-Nov-11 11:12 33.826456 -116.510160 90 480ft 0kts
02-Nov-11 11:13 33.826456 -116.510157 90 480ft 0kts
02-Nov-11 11:14 33.826456 -116.510154 90 480ft 0kts
02-Nov-11 11:15 33.825908 -116.509613 115 480ft 6kts
02-Nov-11 11:16 33.825479 -116.506986 87 480ft 9kts
02-Nov-11 11:17 33.824180 -116.504868 143 480ft 13kts
02-Nov-11 11:18 33.820650 -116.501695 142 480ft 18kts
02-Nov-11 11:19 33.818859 -116.498766 55 480ft 0kts
02-Nov-11 11:20 33.824582 -116.502991 322 480ft 152kts
02-Nov-11 11:21 33.860921 -116.475202 98 4654ft 238kts
02-Nov-11 11:22 33.837993 -116.392020 112 7217ft 271kts
02-Nov-11 11:23 33.810364 -116.305717 112 8939ft 275kts
02-Nov-11 11:24 33.782382 -116.219779 112 8985ft 274kts
02-Nov-11 11:25 33.797841 -116.139930 45 10808ft 275kts
02-Nov-11 11:26 33.857151 -116.076830 42 13122ft 292kts
02-Nov-11 11:27 33.916275 -116.007575 55 14635ft 303kts
02-Nov-11 11:28 33.967959 -115.911575 56 16473ft 380kts
02-Nov-11 11:29 34.028881 -115.800861 55 18501ft 407kts
02-Nov-11 11:30 34.093866 -115.684927 54 20520ft 422kts
02-Nov-11 11:31 34.160306 -115.566830 54 22513ft 433kts
02-Nov-11 11:32 34.229586 -115.443503 54 24538ft 444kts
02-Nov-11 11:33 34.300321 -115.317209 54 26405ft 461kts
02-Nov-11 11:34 34.372449 -115.187988 54 27412ft 464kts
02-Nov-11 11:35 34.444551 -115.058288 54 27369ft 460kts
02-Nov-11 11:36 34.515938 -114.929533 54 27368ft 459kts
02-Nov-11 11:37 34.587181 -114.800474 54 27368ft 459kts
02-Nov-11 11:38 34.658391 -114.670953 55 26589ft 460kts
02-Nov-11 11:39 34.728380 -114.543166 54 24912ft 451kts
02-Nov-11 11:40 34.799563 -114.422014 40 23857ft 457kts
02-Nov-11 11:41 34.894419 -114.321138 37 22733ft 448kts
02-Nov-11 11:42 34.989035 -114.223542 37 21459ft 438kts
02-Nov-11 11:43 35.080485 -114.127893 37 20153ft 430kts
02-Nov-11 11:44 35.170619 -114.032514 38 18855ft 424kts
02-Nov-11 11:45 35.262666 -113.945764 21 17626ft 404kts
02-Nov-11 11:46 35.342899 -113.852788 57 17110ft 410kts
02-Nov-11 11:47 35.393613 -113.727107 63 17002ft 409kts
02-Nov-11 11:48 35.439056 -113.600348 63 16030ft 406kts
02-Nov-11 11:49 35.484417 -113.473071 63 14822ft 398kts
02-Nov-11 11:50 35.528752 -113.349216 63 13620ft 393kts
02-Nov-11 11:51 35.571867 -113.228496 63 12403ft 355kts
02-Nov-11 11:52 35.608283 -113.126133 62 11187ft 317kts
02-Nov-11 11:53 35.642697 -113.029375 61 10347ft 292kts
02-Nov-11 11:54 35.674434 -112.940342 63 9187ft 274kts
02-Nov-11 11:55 35.704448 -112.855723 64 8966ft 266kts
02-Nov-11 11:56 35.733855 -112.772582 65 8973ft 263kts
02-Nov-11 11:58 35.787193 -112.621094 65 8981ft 261kts
02-Nov-11 11:59 35.815922 -112.539175 64 8996ft 257kts
02-Nov-11 12:00 35.844233 -112.458262 64 9000ft 254kts
02-Nov-11 12:01 35.872159 -112.378216 65 8992ft 240kts
02-Nov-11 12:02 35.893141 -112.317020 67 8961ft 175kts
02-Nov-11 12:03 35.905131 -112.258804 73 8564ft 169kts
02-Nov-11 12:04 35.915260 -112.200297 67 7615ft 151kts
02-Nov-11 12:05 35.940092 -112.159958 40 6685ft 131kts
02-Nov-11 12:06 35.952403 -112.146968 42 6612ft 13kts
02-Nov-11 12:07 35.952650 -112.145344 129 6612ft 0kts
02-Nov-11 12:08 35.953067 -112.143779 24 6612ft 8kts
02-Nov-11 12:09 35.953207 -112.142573 216 6612ft 0kts

Navigation Log

Ident Type
Flight plan parsing failed, navigation log unavailable